Time;durP1;ratioP1;P1;durP2;ratioP2;P2;SDS_P1;SDS_P2;PMS_P1;PMS_P2;Temp;Humidity;BMP_temperature;BMP_pressure;BME280_temperature;BME280_humidity;BME280_pressure;Samples;Min_cycle;Max_cycle;Signal;HPM_P1;HPM_P2
2023/10/08 00:01:43;;;;;;;5.00;2.10;;;16.10;55.30;;;;;;2621410;52;20995;-67
2023/10/08 00:04:18;;;;;;;5.12;2.33;;;16.10;55.40;;;;;;2368408;53;21257;-65
2023/10/08 00:06:46;;;;;;;5.97;2.35;;;16.10;55.40;;;;;;2369478;53;20953;-72
2023/10/08 00:09:14;;;;;;;4.87;2.20;;;16.00;55.30;;;;;;2369160;53;20914;-65
2023/10/08 00:11:40;;;;;;;4.47;2.00;;;16.00;55.30;;;;;;2613510;52;20975;-68
2023/10/08 00:14:10;;;;;;;3.70;1.77;;;16.10;55.40;;;;;;2347771;53;20942;-68
2023/10/08 00:16:39;;;;;;;4.68;2.30;;;16.00;55.30;;;;;;2369320;53;20962;-66
2023/10/08 00:19:13;;;;;;;4.28;2.00;;;15.90;55.30;;;;;;2363831;53;20954;-65
2023/10/08 00:21:40;;;;;;;5.35;2.15;;;15.90;55.30;;;;;;2354646;53;20930;-67
2023/10/08 00:24:06;;;;;;;4.40;1.80;;;15.90;55.30;;;;;;2368585;53;20986;-65
2023/10/08 00:26:35;;;;;;;5.10;2.20;;;15.90;55.30;;;;;;2618214;52;21403;-69
2023/10/08 00:29:40;;;;;;;5.25;2.50;;;15.90;55.30;;;;;;2620290;52;20974;-65
2023/10/08 00:32:13;;;;;;;6.12;2.15;;;15.80;55.30;;;;;;2368226;53;20911;-66
2023/10/08 00:34:42;;;;;;;5.82;2.62;;;15.80;55.40;;;;;;2368716;53;20990;-66
2023/10/08 00:37:14;;;;;;;7.75;3.05;;;15.70;55.40;;;;;;2368303;53;20922;-69
2023/10/08 00:39:41;;;;;;;4.60;2.10;;;15.70;55.40;;;;;;2357935;53;20958;-65
2023/10/08 00:42:09;;;;;;;4.70;2.20;;;15.70;55.50;;;;;;2357880;53;21272;-68
2023/10/08 00:44:47;;;;;;;6.55;2.67;;;15.70;55.50;;;;;;2620655;52;20986;-68
2023/10/08 00:47:16;;;;;;;5.07;2.50;;;15.70;55.50;;;;;;2367973;53;21242;-69
2023/10/08 00:55:09;;;;;;;5.40;2.22;;;15.50;55.60;;;;;;2349060;54;21002;-67
2023/10/08 00:57:36;;;;;;;4.45;2.12;;;15.50;55.60;;;;;;2621065;52;20922;-66
2023/10/08 01:00:12;;;;;;;4.57;1.98;;;15.50;55.60;;;;;;2368526;53;20973;-68
2023/10/08 01:05:46;;;;;;;5.35;2.03;;;15.40;55.60;;;;;;2620582;52;20966;-67
2023/10/08 01:08:17;;;;;;;4.43;2.03;;;15.40;55.60;;;;;;2619925;52;20991;-68
2023/10/08 01:10:47;;;;;;;6.05;2.10;;;15.40;55.60;;;;;;2368561;53;20985;-68
2023/10/08 01:13:19;;;;;;;5.30;1.98;;;15.30;55.60;;;;;;2368042;53;20985;-68
2023/10/08 01:15:49;;;;;;;4.32;1.90;;;15.30;55.70;;;;;;2620909;52;20986;-67
2023/10/08 01:18:28;;;;;;;4.78;2.37;;;15.20;55.70;;;;;;2619836;52;21414;-68
2023/10/08 01:20:56;;;;;;;4.90;2.00;;;15.30;55.80;;;;;;2580794;53;21026;-68
2023/10/08 01:23:26;;;;;;;4.30;2.10;;;15.20;55.70;;;;;;2589060;52;20949;-68
2023/10/08 01:26:10;;;;;;;4.93;1.95;;;15.20;55.70;;;;;;2365699;53;21595;-68
2023/10/08 01:28:37;;;;;;;5.35;2.08;;;15.20;55.70;;;;;;2619351;52;21166;-68
2023/10/08 01:31:07;;;;;;;5.47;2.60;;;15.10;55.70;;;;;;2620422;52;20930;-67
2023/10/08 01:33:38;;;;;;;5.93;2.40;;;15.10;55.80;;;;;;2619963;52;20915;-68
2023/10/08 01:36:04;;;;;;;6.47;2.65;;;15.00;55.70;;;;;;2368320;53;20926;-68
2023/10/08 01:38:32;;;;;;;7.80;3.22;;;15.00;55.90;;;;;;2368454;53;21002;-68
2023/10/08 01:41:03;;;;;;;6.05;2.85;;;15.00;56.00;;;;;;2367568;53;20935;-68
2023/10/08 01:43:30;;;;;;;5.43;2.45;;;15.00;56.10;;;;;;2619077;52;20878;-68
2023/10/08 01:45:58;;;;;;;6.15;2.90;;;15.00;56.00;;;;;;2368756;53;21053;-68
2023/10/08 01:48:30;;;;;;;6.57;3.03;;;14.90;56.00;;;;;;2620653;52;21013;-68
2023/10/08 01:51:02;;;;;;;;;;;14.90;55.90;;;;;;2587935;53;20937;-67
2023/10/08 01:53:32;;;;;;;5.62;2.45;;;14.90;55.60;;;;;;2340986;53;20079;-69
2023/10/08 01:56:01;;;;;;;5.15;2.25;;;14.70;55.80;;;;;;2586074;52;21283;-68
2023/10/08 01:58:28;;;;;;;7.28;2.80;;;14.80;55.90;;;;;;2586376;52;21442;-69
2023/10/08 02:00:58;;;;;;;4.53;1.92;;;14.80;56.00;;;;;;2592832;52;20902;-69
2023/10/08 02:03:24;;;;;;;5.78;2.33;;;14.80;56.10;;;;;;2586929;52;21278;-69
2023/10/08 02:05:53;;;;;;;4.87;2.35;;;14.80;56.10;;;;;;2340459;53;21591;-71
2023/10/08 02:08:20;;;;;;;5.90;2.45;;;14.70;56.10;;;;;;2586227;52;20974;-71
2023/10/08 02:10:49;;;;;;;5.37;2.40;;;14.70;56.10;;;;;;2586509;52;20930;-68
2023/10/08 02:13:16;;;;;;;6.43;2.33;;;14.70;56.20;;;;;;2340483;53;20999;-71
2023/10/08 02:15:47;;;;;;;5.35;2.20;;;14.70;56.20;;;;;;2588224;52;21293;-70
2023/10/08 02:18:14;;;;;;;4.72;2.05;;;14.70;56.30;;;;;;2600213;52;20989;-71
2023/10/08 02:20:40;;;;;;;6.57;2.58;;;14.60;56.20;;;;;;2339921;53;21198;-68
2023/10/08 02:23:07;;;;;;;5.05;2.00;;;14.60;56.30;;;;;;2585469;52;20932;-71
2023/10/08 02:25:37;;;;;;;4.87;2.25;;;14.60;56.30;;;;;;2344143;53;21000;-68
2023/10/08 02:28:04;;;;;;;4.50;2.10;;;14.60;56.30;;;;;;2340012;53;20937;-70
2023/10/08 02:30:32;;;;;;;5.20;1.90;;;14.50;56.80;;;;;;2340656;53;20997;-66
2023/10/08 02:32:58;;;;;;;4.47;1.92;;;14.50;56.30;;;;;;2586824;52;21547;-67
2023/10/08 02:35:27;;;;;;;4.03;1.65;;;14.50;56.30;;;;;;2619702;52;21217;-70
2023/10/08 02:37:57;;;;;;;4.85;1.83;;;14.50;56.30;;;;;;2368472;53;20922;-69
2023/10/08 02:40:26;;;;;;;4.30;1.67;;;14.50;56.30;;;;;;2620548;52;21682;-69
2023/10/08 02:42:58;;;;;;;4.72;1.70;;;14.50;56.40;;;;;;2368440;53;20982;-68
2023/10/08 02:45:27;;;;;;;3.97;1.70;;;14.50;56.50;;;;;;2365113;53;20997;-68
2023/10/08 02:47:57;;;;;;;4.30;1.73;;;14.50;56.50;;;;;;2366268;53;20905;-68
2023/10/08 02:50:27;;;;;;;3.87;1.55;;;14.40;56.40;;;;;;2620290;52;20987;-70
2023/10/08 02:52:53;;;;;;;5.25;2.20;;;14.40;56.40;;;;;;2368894;53;20898;-68
2023/10/08 02:55:33;;;;;;;4.70;1.77;;;14.40;57.10;;;;;;2620771;52;21916;-70
2023/10/08 02:58:02;;;;;;;4.70;1.92;;;14.40;56.50;;;;;;2593015;52;20960;-68
2023/10/08 03:00:29;;;;;;;4.35;1.70;;;14.40;56.60;;;;;;2345345;53;20963;-70
2023/10/08 03:03:09;;;;;;;3.78;1.60;;;14.40;56.60;;;;;;2340870;53;20883;-71
2023/10/08 03:05:37;;;;;;;4.40;1.73;;;14.30;56.50;;;;;;2611168;52;20938;-69
2023/10/08 03:08:10;;;;;;;4.37;1.65;;;14.30;56.50;;;;;;2369240;53;20914;-69
2023/10/08 03:10:41;;;;;;;4.25;1.85;;;14.30;56.60;;;;;;2367609;53;20989;-68
2023/10/08 03:13:12;;;;;;;4.60;2.05;;;14.30;56.60;;;;;;2620758;52;20934;-67
2023/10/08 03:24:57;;;;;;;3.87;1.20;;;14.30;56.70;;;;;;2368885;53;21257;-68
2023/10/08 03:27:26;;;;;;;4.15;1.62;;;14.20;56.60;;;;;;2620198;52;20962;-67
2023/10/08 03:29:54;;;;;;;4.28;1.62;;;14.20;56.70;;;;;;2368660;53;20930;-68
2023/10/08 03:32:26;;;;;;;4.35;1.80;;;14.20;56.80;;;;;;2620816;52;21828;-68
2023/10/08 03:34:54;;;;;;;4.78;1.80;;;14.20;56.90;;;;;;2368958;53;21007;-68
2023/10/08 03:37:41;;;;;;;3.90;1.50;;;14.20;56.90;;;;;;2620624;52;20942;-68
2023/10/08 03:40:31;;;;;;;3.65;1.73;;;14.10;56.90;;;;;;2368580;53;21060;-68
2023/10/08 03:42:59;;;;;;;3.58;1.27;;;14.10;56.80;;;;;;2601530;52;20943;-68
2023/10/08 03:48:15;;;;;;;3.50;1.40;;;14.10;56.90;;;;;;2621031;52;20990;-68
2023/10/08 03:50:43;;;;;;;3.33;1.33;;;14.10;56.90;;;;;;2367886;53;20934;-67
2023/10/08 03:53:13;;;;;;;3.45;1.50;;;14.10;56.90;;;;;;2368225;53;20914;-68
2023/10/08 03:55:40;;;;;;;3.70;1.40;;;14.10;56.90;;;;;;2353000;53;20982;-68
2023/10/08 03:58:13;;;;;;;3.85;1.30;;;14.00;56.90;;;;;;2363903;53;20938;-68
2023/10/08 04:00:45;;;;;;;3.70;1.62;;;14.00;56.90;;;;;;2369202;53;20938;-68
2023/10/08 04:03:12;;;;;;;3.40;1.40;;;14.00;56.90;;;;;;2621436;52;20938;-68
2023/10/08 04:08:46;;;;;;;3.25;1.30;;;14.10;57.00;;;;;;2368298;53;20986;-68
2023/10/08 04:13:59;;;;;;;3.42;1.33;;;13.90;56.90;;;;;;2348876;53;21723;-68
2023/10/08 04:16:27;;;;;;;6.72;1.77;;;13.90;57.00;;;;;;2602198;52;20989;-67
2023/10/08 04:18:55;;;;;;;4.30;1.52;;;13.90;57.00;;;;;;2361576;53;21486;-67
2023/10/08 04:21:27;;;;;;;3.45;1.50;;;14.00;57.10;;;;;;2621093;52;20934;-68
2023/10/08 04:23:57;;;;;;;4.55;1.60;;;13.90;57.10;;;;;;2351387;53;21005;-68
2023/10/08 04:26:24;;;;;;;3.50;1.60;;;13.90;57.10;;;;;;2366718;53;20930;-67
2023/10/08 04:28:57;;;;;;;4.15;1.50;;;13.90;57.20;;;;;;2368821;53;21770;-68
2023/10/08 04:31:28;;;;;;;4.53;1.75;;;13.90;57.30;;;;;;2595876;52;20970;-68
2023/10/08 04:33:55;;;;;;;4.90;1.52;;;13.90;57.30;;;;;;2617906;52;20934;-68
2023/10/08 04:36:21;;;;;;;3.80;1.58;;;13.90;57.40;;;;;;2620785;52;20910;-70
2023/10/08 04:38:48;;;;;;;4.30;1.52;;;13.80;57.30;;;;;;2621162;52;20998;-68
2023/10/08 04:41:19;;;;;;;5.03;1.90;;;13.90;57.40;;;;;;2368751;53;21650;-69
2023/10/08 04:43:49;;;;;;;4.72;1.58;;;13.80;57.30;;;;;;2369269;53;20958;-72
2023/10/08 04:49:05;;;;;;;4.82;1.60;;;13.80;57.30;;;;;;2620581;52;21384;-71
2023/10/08 04:51:43;;;;;;;4.43;1.50;;;13.80;57.20;;;;;;2369692;53;20919;-70
2023/10/08 04:54:16;;;;;;;3.15;1.40;;;13.80;57.30;;;;;;2368757;53;21748;-70
2023/10/08 04:56:43;;;;;;;3.97;1.52;;;13.80;57.30;;;;;;2621773;52;20919;-70
2023/10/08 04:59:11;;;;;;;3.78;1.50;;;13.80;57.50;;;;;;2622051;52;20895;-69
2023/10/08 05:01:40;;;;;;;3.75;1.48;;;13.90;57.60;;;;;;2369857;53;21537;-70
2023/10/08 05:04:23;;;;;;;3.92;1.40;;;13.80;57.50;;;;;;2621483;52;20927;-72
2023/10/08 05:07:00;;;;;;;3.65;1.27;;;13.80;57.50;;;;;;2368859;53;20934;-70
2023/10/08 05:09:41;;;;;;;4.62;1.62;;;13.80;57.40;;;;;;2616502;52;20898;-70
2023/10/08 05:17:56;;;;;;;3.53;1.40;;;13.80;57.30;;;;;;2369374;53;20948;-71
2023/10/08 05:26:59;;;;;;;3.78;1.60;;;13.70;57.20;;;;;;2368811;53;21376;-70
2023/10/08 05:29:51;;;;;;;3.80;1.30;;;13.70;57.20;;;;;;2620855;52;21004;-67
2023/10/08 05:37:52;;;;;;;3.22;1.30;;;13.60;57.40;;;;;;2621703;52;21066;-68
2023/10/08 05:40:43;;;;;;;3.35;1.40;;;13.60;57.50;;;;;;2620580;52;21427;-67
2023/10/08 05:43:23;;;;;;;3.25;1.20;;;13.60;57.50;;;;;;2368602;53;20978;-69
2023/10/08 05:46:19;;;;;;;4.00;1.50;;;13.60;57.50;;;;;;2347685;53;21020;-68
2023/10/08 05:48:50;;;;;;;3.55;1.33;;;13.60;57.50;;;;;;2587571;52;21056;-69
2023/10/08 05:51:44;;;;;;;3.87;1.40;;;13.50;57.50;;;;;;2344590;53;21372;-68
2023/10/08 05:59:27;;;;;;;3.87;1.33;;;13.60;57.60;;;;;;2343768;53;20940;-68
2023/10/08 06:02:05;;;;;;;5.72;1.85;;;13.50;57.50;;;;;;2587680;52;21012;-70
2023/10/08 06:04:53;;;;;;;5.78;2.00;;;13.50;57.60;;;;;;2341110;54;21466;-68
2023/10/08 06:07:33;;;;;;;4.90;1.90;;;13.50;57.70;;;;;;2585956;52;20993;-69
2023/10/08 06:10:26;;;;;;;4.47;1.60;;;13.50;57.70;;;;;;2604532;52;20985;-69
2023/10/08 06:13:01;;;;;;;4.07;1.67;;;13.50;57.80;;;;;;2596300;52;20922;-72
2023/10/08 06:18:14;;;;;;;4.18;1.52;;;13.50;57.80;;;;;;2340711;53;20997;-67
2023/10/08 06:20:43;;;;;;;3.75;1.50;;;13.50;57.80;;;;;;2341234;53;20937;-67
2023/10/08 06:23:15;;;;;;;3.87;1.23;;;13.50;57.90;;;;;;2587802;52;21008;-71
2023/10/08 06:25:44;;;;;;;3.62;1.60;;;13.50;57.90;;;;;;2587023;52;21327;-68
2023/10/08 06:28:36;;;;;;;3.80;1.70;;;13.50;58.00;;;;;;2587154;52;21766;-69
2023/10/08 06:31:06;;;;;;;4.25;2.30;;;13.50;58.00;;;;;;2341606;53;21254;-69
2023/10/08 06:33:33;;;;;;;5.18;2.95;;;13.50;58.00;;;;;;2341473;53;20909;-71
2023/10/08 06:36:13;;;;;;;6.18;3.08;;;13.50;58.10;;;;;;2593340;52;21001;-72
2023/10/08 06:38:40;;;;;;;5.93;3.30;;;13.50;58.20;;;;;;2352702;53;22059;-71
2023/10/08 06:41:09;;;;;;;6.62;3.08;;;13.60;59.00;;;;;;2586136;52;21054;-68
2023/10/08 06:43:36;;;;;;;6.87;2.40;;;13.60;58.50;;;;;;2586758;52;20921;-68
2023/10/08 06:46:03;;;;;;;3.85;2.10;;;13.60;58.60;;;;;;2587411;52;20976;-68
2023/10/08 06:48:29;;;;;;;4.65;1.98;;;13.70;58.70;;;;;;2617629;52;20950;-68
2023/10/08 06:51:07;;;;;;;3.87;1.90;;;13.60;58.70;;;;;;2620580;52;20954;-68
2023/10/08 06:53:38;;;;;;;4.18;1.85;;;13.70;58.90;;;;;;2620201;52;20930;-68
2023/10/08 06:56:15;;;;;;;4.40;2.05;;;13.80;59.00;;;;;;2340874;53;21023;-69
2023/10/08 06:58:48;;;;;;;5.05;2.20;;;13.80;59.00;;;;;;2340633;53;20921;-71
2023/10/08 07:01:38;;;;;;;3.97;1.75;;;13.80;59.10;;;;;;2580625;52;20914;-71
2023/10/08 07:04:06;;;;;;;4.10;1.87;;;13.90;59.20;;;;;;2586020;52;20958;-67
2023/10/08 07:06:33;;;;;;;5.72;1.98;;;13.90;59.30;;;;;;2587201;52;21036;-71
2023/10/08 07:09:05;;;;;;;4.57;1.90;;;14.00;59.40;;;;;;2341362;53;20941;-70
2023/10/08 07:11:44;;;;;;;4.75;1.92;;;14.00;59.40;;;;;;2341028;53;21744;-69
2023/10/08 07:14:10;;;;;;;5.80;2.47;;;14.10;59.50;;;;;;2587592;52;20925;-69
2023/10/08 07:16:37;;;;;;;5.57;2.28;;;14.20;59.60;;;;;;2340299;53;20940;-68
2023/10/08 07:19:17;;;;;;;5.40;2.12;;;14.20;59.50;;;;;;2341123;53;21018;-68
2023/10/08 07:21:46;;;;;;;5.25;2.40;;;14.30;59.60;;;;;;2613872;52;20955;-68
2023/10/08 07:24:17;;;;;;;7.25;2.42;;;14.40;59.70;;;;;;2621336;52;20918;-68
2023/10/08 07:26:47;;;;;;;6.40;2.35;;;14.50;59.70;;;;;;2368145;53;20911;-71
2023/10/08 07:29:17;;;;;;;6.75;2.70;;;14.60;59.90;;;;;;2619884;52;20938;-68
2023/10/08 07:31:48;;;;;;;6.45;2.78;;;14.60;59.80;;;;;;2368058;53;21595;-68
2023/10/08 07:34:18;;;;;;;6.65;3.03;;;14.70;60.00;;;;;;2621212;52;20923;-68
2023/10/08 07:36:54;;;;;;;5.30;2.85;;;14.70;60.00;;;;;;2367742;53;20902;-70
2023/10/08 07:39:49;;;;;;;5.12;2.42;;;14.80;60.10;;;;;;2609882;52;21036;-68
2023/10/08 07:42:15;;;;;;;5.78;2.97;;;14.90;60.20;;;;;;2368496;53;20962;-68
2023/10/08 07:44:42;;;;;;;5.87;3.12;;;15.00;60.30;;;;;;2620064;52;20934;-67
2023/10/08 07:47:13;;;;;;;8.25;3.37;;;15.10;60.50;;;;;;2368666;53;20964;-68
2023/10/08 07:49:40;;;;;;;5.18;3.10;;;15.10;60.50;;;;;;2620766;52;21580;-70
2023/10/08 07:52:06;;;;;;;7.50;3.03;;;15.30;60.70;;;;;;2620465;52;20921;-68
2023/10/08 07:54:35;;;;;;;5.95;2.80;;;15.30;60.80;;;;;;2368756;53;21733;-69
2023/10/08 07:57:18;;;;;;;5.03;2.30;;;15.40;60.90;;;;;;2368757;53;21160;-66
2023/10/08 07:59:48;;;;;;;5.18;2.33;;;15.50;61.00;;;;;;2368652;53;20911;-71
2023/10/08 08:02:17;;;;;;;5.15;2.10;;;15.70;61.10;;;;;;2369405;53;21034;-68
2023/10/08 08:04:45;;;;;;;4.93;2.17;;;15.70;61.10;;;;;;2366417;53;20921;-68
2023/10/08 08:07:17;;;;;;;4.80;2.35;;;15.80;61.20;;;;;;2616857;52;21399;-69
2023/10/08 08:09:59;;;;;;;4.80;1.87;;;16.00;61.30;;;;;;2367862;53;20957;-68
2023/10/08 08:12:28;;;;;;;4.57;1.60;;;16.00;61.20;;;;;;2615494;52;21547;-67
2023/10/08 08:14:55;;;;;;;4.28;1.70;;;16.20;61.20;;;;;;2616359;52;20903;-67
2023/10/08 08:17:22;;;;;;;4.70;1.58;;;16.30;61.20;;;;;;2368435;53;21927;-68
2023/10/08 08:19:49;;;;;;;3.80;1.50;;;16.40;61.10;;;;;;2341334;53;20981;-67
2023/10/08 08:22:22;;;;;;;3.67;1.48;;;16.50;61.20;;;;;;2345602;53;21415;-69
2023/10/08 08:24:53;;;;;;;4.28;1.50;;;16.60;61.20;;;;;;2332023;53;21427;-67
2023/10/08 08:27:31;;;;;;;4.60;1.97;;;16.70;61.20;;;;;;2337075;53;21722;-66
2023/10/08 08:30:10;;;;;;;4.00;1.67;;;16.90;61.30;;;;;;2587986;52;21584;-67
2023/10/08 08:32:40;;;;;;;4.45;1.75;;;17.00;61.40;;;;;;2343094;54;20933;-66
2023/10/08 08:35:10;;;;;;;4.50;1.90;;;17.20;61.50;;;;;;2364315;53;20975;-70
2023/10/08 08:37:38;;;;;;;6.53;2.55;;;17.30;61.70;;;;;;2354011;53;20934;-67
2023/10/08 08:40:28;;;;;;;5.82;2.17;;;17.40;61.50;;;;;;2368365;53;21503;-66
2023/10/08 08:42:58;;;;;;;4.47;1.83;;;17.50;61.40;;;;;;2368610;53;21266;-67
2023/10/08 08:45:26;;;;;;;4.32;2.10;;;17.70;61.50;;;;;;2340939;53;20961;-67
2023/10/08 08:47:53;;;;;;;5.70;2.08;;;17.80;61.40;;;;;;2612198;52;20966;-68
2023/10/08 08:50:22;;;;;;;5.68;2.25;;;17.90;61.40;;;;;;2367650;53;20922;-69
2023/10/08 08:52:48;;;;;;;4.80;2.12;;;18.00;61.40;;;;;;2610563;52;20921;-67
2023/10/08 08:55:14;;;;;;;4.87;1.55;;;18.20;61.50;;;;;;2368267;53;20939;-69
2023/10/08 08:57:49;;;;;;;4.68;1.75;;;18.30;61.40;;;;;;2620664;52;20922;-66
2023/10/08 09:00:17;;;;;;;4.55;2.15;;;18.40;61.20;;;;;;2621029;52;20926;-66
2023/10/08 09:02:44;;;;;;;5.72;2.33;;;18.50;61.30;;;;;;2368747;53;20938;-67
2023/10/08 09:05:24;;;;;;;4.30;2.05;;;18.60;61.40;;;;;;2367681;53;20935;-69
2023/10/08 09:08:06;;;;;;;5.70;2.62;;;18.70;61.40;;;;;;2368409;53;20930;-67
2023/10/08 09:10:51;;;;;;;4.53;2.10;;;18.80;61.20;;;;;;2374409;53;21472;-69
2023/10/08 09:13:20;;;;;;;4.47;1.80;;;18.90;61.40;;;;;;2361942;53;21451;-68
2023/10/08 09:15:47;;;;;;;3.47;1.62;;;19.00;61.30;;;;;;2610979;52;20945;-69
2023/10/08 09:18:14;;;;;;;4.07;1.98;;;19.10;61.40;;;;;;2367497;53;20903;-68
2023/10/08 09:20:44;;;;;;;3.75;1.70;;;19.20;62.10;;;;;;2620110;52;21061;-67
2023/10/08 09:23:14;;;;;;;5.10;1.70;;;19.30;61.40;;;;;;2621553;52;20931;-67
2023/10/08 09:25:44;;;;;;;3.47;1.50;;;19.40;61.30;;;;;;2620753;52;20958;-68
2023/10/08 09:28:15;;;;;;;4.37;1.90;;;19.50;61.40;;;;;;2368639;53;21009;-68
2023/10/08 09:30:41;;;;;;;4.82;2.28;;;19.60;61.20;;;;;;2617140;52;21506;-66
2023/10/08 09:33:08;;;;;;;4.32;1.83;;;19.70;61.10;;;;;;2608948;53;21925;-68
2023/10/08 09:35:36;;;;;;;4.53;2.00;;;19.80;61.00;;;;;;2619303;52;20930;-67
2023/10/08 09:38:11;;;;;;;5.10;2.45;;;19.90;60.90;;;;;;2369250;53;21026;-67
2023/10/08 09:40:41;;;;;;;4.30;1.98;;;20.00;60.60;;;;;;2620396;52;20994;-68
2023/10/08 09:43:09;;;;;;;4.45;1.77;;;20.10;60.70;;;;;;2621636;52;20957;-70
2023/10/08 09:45:37;;;;;;;4.62;2.05;;;20.20;60.70;;;;;;2368746;53;20985;-69
2023/10/08 09:48:04;;;;;;;4.45;1.67;;;20.30;60.70;;;;;;2369849;53;21427;-68
2023/10/08 09:50:35;;;;;;;4.60;1.87;;;20.40;60.60;;;;;;2621968;52;20978;-68
2023/10/08 09:53:16;;;;;;;6.10;1.90;;;20.50;60.60;;;;;;2622052;52;21001;-68
2023/10/08 09:55:54;;;;;;;4.18;1.77;;;20.60;60.60;;;;;;2620506;52;20967;-68
2023/10/08 09:58:22;;;;;;;4.35;1.77;;;20.70;60.40;;;;;;2621040;52;20915;-68
2023/10/08 10:00:49;;;;;;;4.20;1.90;;;20.80;60.60;;;;;;2368628;53;21021;-69
2023/10/08 10:03:18;;;;;;;4.12;1.85;;;20.80;60.40;;;;;;2363537;53;20945;-69
2023/10/08 10:05:45;;;;;;;4.68;1.87;;;20.90;60.50;;;;;;2589979;52;20923;-70
2023/10/08 10:08:11;;;;;;;7.68;2.40;;;21.00;60.40;;;;;;2368753;53;21727;-67
2023/10/08 10:10:38;;;;;;;5.57;2.30;;;21.10;60.50;;;;;;2368521;53;20982;-67
2023/10/08 10:13:10;;;;;;;4.87;2.05;;;21.20;60.50;;;;;;2368940;53;20978;-66
2023/10/08 10:15:37;;;;;;;4.37;2.33;;;21.30;60.30;;;;;;2368397;53;21065;-67
2023/10/08 10:18:18;;;;;;;4.07;1.75;;;21.40;60.50;;;;;;2365713;53;20991;-68
2023/10/08 10:20:53;;;;;;;4.55;2.10;;;21.50;60.10;;;;;;2616751;52;20926;-67
2023/10/08 10:23:45;;;;;;;5.85;2.30;;;21.60;60.00;;;;;;2610786;52;21023;-68
2023/10/08 10:26:34;;;;;;;5.60;1.90;;;21.70;59.80;;;;;;2571582;53;20965;-67
2023/10/08 10:30:52;;;;;;;5.20;2.10;;;21.80;59.80;;;;;;2360907;53;20986;-69
2023/10/08 10:33:19;;;;;;;4.43;2.10;;;22.00;59.30;;;;;;2621176;52;20977;-68
2023/10/08 10:35:52;;;;;;;5.10;2.08;;;22.10;59.90;;;;;;2620482;52;20938;-69
2023/10/08 10:38:20;;;;;;;4.05;1.95;;;22.20;59.30;;;;;;2368483;53;20930;-68
2023/10/08 10:40:56;;;;;;;5.25;2.30;;;22.30;59.50;;;;;;2368397;53;21002;-67
2023/10/08 10:43:36;;;;;;;5.00;2.40;;;22.30;59.20;;;;;;2369166;53;21388;-67
2023/10/08 10:46:24;;;;;;;;;;;22.40;59.10;;;;;;2372400;53;20929;-68
2023/10/08 10:52:51;;;;;;;4.57;1.90;;;22.60;59.50;;;;;;2620841;52;20927;-68
2023/10/08 10:55:22;;;;;;;4.93;1.75;;;22.80;59.30;;;;;;2368946;53;21002;-67
2023/10/08 10:58:11;;;;;;;5.97;1.65;;;22.90;59.00;;;;;;2620700;52;21692;-67
2023/10/08 11:03:17;;;;;;;4.95;1.90;;;23.00;58.00;;;;;;2621648;52;20978;-69
2023/10/08 11:05:48;;;;;;;4.32;1.65;;;23.20;58.80;;;;;;2367742;53;20962;-68
2023/10/08 11:08:15;;;;;;;4.43;2.35;;;23.20;57.90;;;;;;2368680;53;20938;-68
2023/10/08 11:10:48;;;;;;;4.97;2.35;;;23.30;58.00;;;;;;2611421;52;20936;-68
2023/10/08 11:13:15;;;;;;;4.22;1.95;;;23.50;58.00;;;;;;2617830;52;20962;-67
2023/10/08 11:15:48;;;;;;;4.43;2.22;;;23.50;58.60;;;;;;2611038;52;21061;-68
2023/10/08 11:18:17;;;;;;;;;;;23.70;58.20;;;;;;2372435;53;20918;-68
2023/10/08 11:20:44;;;;;;;3.80;2.00;;;23.80;57.50;;;;;;2367697;53;20061;-70
2023/10/08 11:23:58;;;;;;;5.87;2.10;;;23.90;58.30;;;;;;2621140;52;21379;-67
2023/10/08 11:26:31;;;;;;;4.72;1.75;;;23.90;58.10;;;;;;2621332;52;21503;-67
2023/10/08 11:29:02;;;;;;;5.25;2.12;;;24.10;57.90;;;;;;2368091;53;20938;-67
2023/10/08 11:31:29;;;;;;;5.12;2.03;;;24.20;57.40;;;;;;2616740;52;20956;-69
2023/10/08 11:34:08;;;;;;;5.00;2.00;;;24.20;57.50;;;;;;2359886;53;20953;-67
2023/10/08 11:36:48;;;;;;;4.05;1.92;;;24.40;56.60;;;;;;2621405;52;21018;-68
2023/10/08 11:39:21;;;;;;;4.18;2.00;;;24.50;57.20;;;;;;2355863;53;20918;-68
2023/10/08 11:42:06;;;;;;;5.32;2.00;;;24.60;57.10;;;;;;2316588;53;20940;-69
2023/10/08 11:44:35;;;;;;;4.30;1.87;;;24.70;55.40;;;;;;2341468;53;21369;-69
2023/10/08 11:47:13;;;;;;;4.90;2.15;;;24.80;56.50;;;;;;2344167;54;20916;-68
2023/10/08 11:49:50;;;;;;;5.68;2.42;;;24.90;56.30;;;;;;2355686;53;21446;-69
2023/10/08 11:52:18;;;;;;;5.22;2.03;;;25.00;55.90;;;;;;2341649;53;21014;-68
2023/10/08 11:54:48;;;;;;;3.87;2.00;;;25.10;55.80;;;;;;2340980;53;20940;-69
2023/10/08 11:57:19;;;;;;;4.45;1.92;;;25.20;55.40;;;;;;2587895;52;20983;-69
2023/10/08 11:59:46;;;;;;;3.78;1.70;;;25.30;55.30;;;;;;2351667;53;20950;-68
2023/10/08 12:02:16;;;;;;;4.40;1.58;;;25.40;55.00;;;;;;2346509;52;20989;-70
2023/10/08 12:04:45;;;;;;;4.60;2.10;;;25.50;54.80;;;;;;2345146;53;20976;-71
2023/10/08 12:07:11;;;;;;;5.15;1.75;;;25.50;54.70;;;;;;2354749;53;20904;-69
2023/10/08 12:09:38;;;;;;;4.22;1.70;;;25.60;54.60;;;;;;2341366;54;20956;-68
2023/10/08 12:12:09;;;;;;;6.00;2.00;;;25.70;54.40;;;;;;2359898;54;21421;-67
2023/10/08 12:14:37;;;;;;;4.32;1.90;;;25.80;53.90;;;;;;2615201;52;21495;-68
2023/10/08 12:17:11;;;;;;;6.37;1.85;;;25.90;53.90;;;;;;2599375;52;20913;-68
2023/10/08 12:19:40;;;;;;;3.97;1.70;;;25.90;53.70;;;;;;2340952;53;20953;-68
2023/10/08 12:22:08;;;;;;;3.30;1.67;;;26.00;53.70;;;;;;2586747;52;20914;-71
2023/10/08 12:24:35;;;;;;;5.15;2.00;;;26.10;53.60;;;;;;2588025;52;21089;-68
2023/10/08 12:27:03;;;;;;;4.50;1.67;;;26.20;53.40;;;;;;2341385;53;20980;-68
2023/10/08 12:29:32;;;;;;;4.43;1.85;;;26.20;53.30;;;;;;2587882;52;20984;-67
2023/10/08 12:32:03;;;;;;;4.53;2.10;;;26.30;52.50;;;;;;2339760;54;20965;-67
2023/10/08 12:34:33;;;;;;;5.00;2.07;;;26.40;52.70;;;;;;2337995;53;20925;-68
2023/10/08 12:37:00;;;;;;;5.45;2.12;;;26.40;52.80;;;;;;2349866;53;20909;-68
2023/10/08 12:39:28;;;;;;;6.18;1.92;;;26.50;52.70;;;;;;2346199;53;20984;-69
2023/10/08 12:41:54;;;;;;;6.40;2.50;;;26.60;52.50;;;;;;2319637;54;22232;-67
2023/10/08 12:44:23;;;;;;;4.03;2.03;;;26.70;52.20;;;;;;2343004;53;20939;-69
2023/10/08 12:46:51;;;;;;;5.78;2.53;;;26.70;51.70;;;;;;2586055;52;21010;-68
2023/10/08 12:49:20;;;;;;;3.92;1.90;;;26.80;52.10;;;;;;2341629;53;21740;-68
2023/10/08 12:51:47;;;;;;;4.87;2.25;;;26.90;52.20;;;;;;2346501;53;21571;-71
2023/10/08 12:54:21;;;;;;;4.85;2.35;;;27.00;51.90;;;;;;2350331;53;20924;-67
2023/10/08 12:56:54;;;;;;;6.45;2.25;;;27.00;51.40;;;;;;2586273;52;20928;-68
2023/10/08 12:59:20;;;;;;;6.15;2.15;;;27.10;51.20;;;;;;2341043;53;20904;-67
2023/10/08 13:01:51;;;;;;;4.75;2.10;;;27.20;51.10;;;;;;2341230;53;20916;-67
2023/10/08 13:04:25;;;;;;;5.00;1.92;;;27.20;50.80;;;;;;2360422;53;21002;-67
2023/10/08 13:06:56;;;;;;;6.32;2.80;;;27.30;50.70;;;;;;2586588;52;20925;-67
2023/10/08 13:09:25;;;;;;;4.23;1.63;;;27.40;50.70;;;;;;2584746;52;21660;-68
2023/10/08 13:11:52;;;;;;;5.03;2.10;;;27.50;50.50;;;;;;2586682;52;21063;-69
2023/10/08 13:14:19;;;;;;;4.30;1.90;;;27.50;50.50;;;;;;2608412;52;21409;-67
2023/10/08 13:16:45;;;;;;;4.60;1.80;;;27.60;50.50;;;;;;2341330;53;20985;-68
2023/10/08 13:19:11;;;;;;;3.33;1.40;;;27.60;50.30;;;;;;2339916;53;21967;-68
2023/10/08 13:21:38;;;;;;;4.57;1.87;;;27.70;50.40;;;;;;2587548;52;20968;-67
2023/10/08 13:24:08;;;;;;;4.45;2.00;;;27.80;50.00;;;;;;2341083;53;21272;-68
2023/10/08 13:26:41;;;;;;;4.45;1.70;;;27.80;49.80;;;;;;2587675;52;21362;-69
2023/10/08 13:29:09;;;;;;;4.25;1.80;;;27.90;49.70;;;;;;2586996;52;20939;-67
2023/10/08 13:31:38;;;;;;;5.40;1.85;;;27.90;49.60;;;;;;2340926;53;20930;-67
2023/10/08 13:34:08;;;;;;;4.93;1.50;;;28.00;49.60;;;;;;2354602;53;21321;-68
2023/10/08 13:36:37;;;;;;;4.53;1.80;;;28.00;49.50;;;;;;2340322;53;21005;-68
2023/10/08 13:39:09;;;;;;;4.75;1.60;;;28.10;49.30;;;;;;2342004;53;20961;-68
2023/10/08 13:41:38;;;;;;;3.50;1.48;;;28.20;49.40;;;;;;2341257;53;21434;-68
2023/10/08 13:44:05;;;;;;;4.82;1.87;;;28.20;49.30;;;;;;2340204;53;20984;-69
2023/10/08 13:46:36;;;;;;;4.62;1.62;;;28.20;49.20;;;;;;2341052;53;20960;-68
2023/10/08 13:49:02;;;;;;;5.75;2.12;;;28.30;49.20;;;;;;2586328;52;21095;-67
2023/10/08 13:51:28;;;;;;;6.10;1.90;;;28.40;49.20;;;;;;2341248;53;20925;-69
2023/10/08 13:53:59;;;;;;;6.78;2.30;;;28.40;49.70;;;;;;2340597;53;21431;-68
2023/10/08 13:56:26;;;;;;;5.00;2.12;;;28.50;49.20;;;;;;2587658;52;21458;-67
2023/10/08 13:59:03;;;;;;;4.43;2.03;;;28.50;49.00;;;;;;2358959;53;21470;-67
2023/10/08 14:01:38;;;;;;;6.65;1.95;;;28.50;48.90;;;;;;2586783;52;20961;-67
2023/10/08 14:04:05;;;;;;;5.35;2.08;;;28.60;48.70;;;;;;2585756;52;21011;-68
2023/10/08 14:06:35;;;;;;;5.05;1.70;;;28.60;48.90;;;;;;2349719;53;20990;-71
2023/10/08 14:09:07;;;;;;;5.45;1.98;;;28.60;48.90;;;;;;2368662;53;20985;-68
2023/10/08 14:11:33;;;;;;;;;;;28.70;48.70;;;;;;2625791;52;20938;-70
2023/10/08 14:14:07;;;;;;;4.82;1.35;;;28.70;48.00;;;;;;2620891;52;20106;-69